sensor_id;sensor_type;location;lat;lon;timestamp;pressure;altitude;pressure_sealevel;temperature;humidity
56825;BME280;42705;50.326;18.772;2023-07-08T00:03:46;99083.52;;;18.31;53.83
56825;BME280;42705;50.326;18.772;2023-07-08T00:09:11;99076.59;;;18.25;54.21
56825;BME280;42705;50.326;18.772;2023-07-08T00:14:37;99077.03;;;18.18;54.39
56825;BME280;42705;50.326;18.772;2023-07-08T00:20:00;99080.31;;;18.11;54.74
56825;BME280;42705;50.326;18.772;2023-07-08T00:25:22;99079.17;;;18.02;54.97
56825;BME280;42705;50.326;18.772;2023-07-08T00:30:43;99079.02;;;18.00;55.34
56825;BME280;42705;50.326;18.772;2023-07-08T00:36:14;99079.77;;;18.00;55.60
56825;BME280;42705;50.326;18.772;2023-07-08T00:41:38;99077.77;;;17.99;55.83
56825;BME280;42705;50.326;18.772;2023-07-08T00:47:08;99075.27;;;17.96;55.96
56825;BME280;42705;50.326;18.772;2023-07-08T00:52:31;99071.77;;;17.91;56.01
56825;BME280;42705;50.326;18.772;2023-07-08T00:57:53;99072.75;;;17.85;56.28
56825;BME280;42705;50.326;18.772;2023-07-08T01:03:15;99061.84;;;17.78;56.38
56825;BME280;42705;50.326;18.772;2023-07-08T01:08:37;99060.09;;;17.70;56.09
56825;BME280;42705;50.326;18.772;2023-07-08T01:14:00;99059.63;;;17.63;56.14
56825;BME280;42705;50.326;18.772;2023-07-08T01:19:24;99058.29;;;17.56;55.84
56825;BME280;42705;50.326;18.772;2023-07-08T01:24:54;99058.73;;;17.52;56.21
56825;BME280;42705;50.326;18.772;2023-07-08T01:30:16;99056.64;;;17.53;56.50
56825;BME280;42705;50.326;18.772;2023-07-08T01:35:38;99057.70;;;17.55;56.23
56825;BME280;42705;50.326;18.772;2023-07-08T01:41:00;99058.48;;;17.56;56.25
56825;BME280;42705;50.326;18.772;2023-07-08T01:46:26;99055.96;;;17.54;56.41
56825;BME280;42705;50.326;18.772;2023-07-08T01:51:49;99058.67;;;17.51;56.33
56825;BME280;42705;50.326;18.772;2023-07-08T01:57:12;99061.86;;;17.46;56.55
56825;BME280;42705;50.326;18.772;2023-07-08T02:02:34;99059.70;;;17.36;56.47
56825;BME280;42705;50.326;18.772;2023-07-08T02:07:56;99068.60;;;17.24;56.59
56825;BME280;42705;50.326;18.772;2023-07-08T02:13:19;99073.13;;;17.09;56.88
56825;BME280;42705;50.326;18.772;2023-07-08T02:18:43;99081.74;;;16.99;57.24
56825;BME280;42705;50.326;18.772;2023-07-08T02:24:05;99079.41;;;16.94;57.53
56825;BME280;42705;50.326;18.772;2023-07-08T02:29:27;99080.23;;;16.89;57.86
56825;BME280;42705;50.326;18.772;2023-07-08T02:34:51;99081.63;;;16.83;57.94
56825;BME280;42705;50.326;18.772;2023-07-08T02:40:13;99084.23;;;16.78;58.17
56825;BME280;42705;50.326;18.772;2023-07-08T02:45:36;99084.11;;;16.75;58.45
56825;BME280;42705;50.326;18.772;2023-07-08T02:51:02;99084.44;;;16.75;58.69
56825;BME280;42705;50.326;18.772;2023-07-08T02:56:24;99085.08;;;16.81;58.70
56825;BME280;42705;50.326;18.772;2023-07-08T03:01:48;99090.83;;;16.90;58.86
56825;BME280;42705;50.326;18.772;2023-07-08T03:07:11;99087.52;;;16.94;58.95
56825;BME280;42705;50.326;18.772;2023-07-08T03:12:33;99087.29;;;16.97;59.03
56825;BME280;42705;50.326;18.772;2023-07-08T03:17:56;99090.90;;;16.97;59.09
56825;BME280;42705;50.326;18.772;2023-07-08T03:23:20;99093.83;;;17.00;59.11
56825;BME280;42705;50.326;18.772;2023-07-08T03:28:42;99089.17;;;17.05;59.03
56825;BME280;42705;50.326;18.772;2023-07-08T03:34:04;99090.45;;;17.10;59.14
56825;BME280;42705;50.326;18.772;2023-07-08T03:39:26;99086.55;;;17.12;59.12
56825;BME280;42705;50.326;18.772;2023-07-08T03:44:48;99084.53;;;17.13;58.92
56825;BME280;42705;50.326;18.772;2023-07-08T03:50:19;99082.64;;;17.14;59.06
56825;BME280;42705;50.326;18.772;2023-07-08T03:55:42;99084.71;;;17.16;59.08
56825;BME280;42705;50.326;18.772;2023-07-08T04:01:05;99084.98;;;17.23;59.30
56825;BME280;42705;50.326;18.772;2023-07-08T04:06:31;99087.54;;;17.32;59.27
56825;BME280;42705;50.326;18.772;2023-07-08T04:11:56;99090.65;;;17.38;59.25
56825;BME280;42705;50.326;18.772;2023-07-08T04:17:19;99092.73;;;17.40;59.23
56825;BME280;42705;50.326;18.772;2023-07-08T04:22:44;99087.89;;;17.39;59.36
56825;BME280;42705;50.326;18.772;2023-07-08T04:28:06;99086.89;;;17.38;59.37
56825;BME280;42705;50.326;18.772;2023-07-08T04:33:28;99081.64;;;17.43;59.66
56825;BME280;42705;50.326;18.772;2023-07-08T04:38:50;99081.38;;;17.51;59.68
56825;BME280;42705;50.326;18.772;2023-07-08T04:44:12;99079.70;;;17.60;59.59
56825;BME280;42705;50.326;18.772;2023-07-08T04:49:34;99079.15;;;17.67;59.59
56825;BME280;42705;50.326;18.772;2023-07-08T04:54:56;99074.95;;;17.71;59.53
56825;BME280;42705;50.326;18.772;2023-07-08T05:00:18;99075.98;;;17.76;59.41
56825;BME280;42705;50.326;18.772;2023-07-08T05:05:41;99074.16;;;17.84;59.51
56825;BME280;42705;50.326;18.772;2023-07-08T05:11:02;99069.04;;;17.91;58.87
56825;BME280;42705;50.326;18.772;2023-07-08T05:16:25;99066.59;;;17.99;58.22
56825;BME280;42705;50.326;18.772;2023-07-08T05:21:47;99068.39;;;18.04;57.94
56825;BME280;42705;50.326;18.772;2023-07-08T05:27:10;99069.73;;;18.12;57.82
56825;BME280;42705;50.326;18.772;2023-07-08T05:32:32;99066.00;;;18.17;57.33
56825;BME280;42705;50.326;18.772;2023-07-08T05:37:54;99065.44;;;18.27;57.28
56825;BME280;42705;50.326;18.772;2023-07-08T05:43:17;99073.04;;;18.38;57.09
56825;BME280;42705;50.326;18.772;2023-07-08T05:48:40;99076.21;;;18.49;56.91
56825;BME280;42705;50.326;18.772;2023-07-08T05:54:03;99077.34;;;18.61;56.67
56825;BME280;42705;50.326;18.772;2023-07-08T05:59:25;99074.27;;;18.72;56.52
56825;BME280;42705;50.326;18.772;2023-07-08T06:04:47;99070.13;;;18.84;56.08
56825;BME280;42705;50.326;18.772;2023-07-08T06:10:09;99067.74;;;18.95;55.86
56825;BME280;42705;50.326;18.772;2023-07-08T06:15:31;99072.52;;;19.07;55.52
56825;BME280;42705;50.326;18.772;2023-07-08T06:20:54;99078.94;;;19.23;55.53
56825;BME280;42705;50.326;18.772;2023-07-08T06:26:17;99086.20;;;19.36;55.25
56825;BME280;42705;50.326;18.772;2023-07-08T06:31:39;99084.33;;;19.47;54.73
56825;BME280;42705;50.326;18.772;2023-07-08T06:37:00;99079.89;;;19.61;54.33
56825;BME280;42705;50.326;18.772;2023-07-08T06:42:22;99080.40;;;19.75;54.05
56825;BME280;42705;50.326;18.772;2023-07-08T06:47:58;99086.55;;;19.89;53.71
56825;BME280;42705;50.326;18.772;2023-07-08T06:53:19;99092.42;;;20.02;53.43
56825;BME280;42705;50.326;18.772;2023-07-08T06:58:41;99087.27;;;20.17;53.01
56825;BME280;42705;50.326;18.772;2023-07-08T07:04:03;99081.98;;;20.31;52.70
56825;BME280;42705;50.326;18.772;2023-07-08T07:09:25;99079.98;;;20.46;52.07
56825;BME280;42705;50.326;18.772;2023-07-08T07:14:47;99089.31;;;20.59;51.43
56825;BME280;42705;50.326;18.772;2023-07-08T07:20:12;99087.15;;;20.72;51.22
56825;BME280;42705;50.326;18.772;2023-07-08T07:25:34;99085.08;;;20.85;50.23
56825;BME280;42705;50.326;18.772;2023-07-08T07:30:58;99083.29;;;20.96;49.32
56825;BME280;42705;50.326;18.772;2023-07-08T07:36:20;99081.70;;;21.08;48.45
56825;BME280;42705;50.326;18.772;2023-07-08T07:41:42;99084.34;;;21.22;47.29
56825;BME280;42705;50.326;18.772;2023-07-08T07:47:04;99087.80;;;21.37;46.49
56825;BME280;42705;50.326;18.772;2023-07-08T07:52:26;99085.84;;;21.50;46.17
56825;BME280;42705;50.326;18.772;2023-07-08T07:57:48;99092.42;;;21.64;45.92
56825;BME280;42705;50.326;18.772;2023-07-08T08:03:10;99093.17;;;21.76;45.32
56825;BME280;42705;50.326;18.772;2023-07-08T08:08:32;99091.44;;;21.89;44.71
56825;BME280;42705;50.326;18.772;2023-07-08T08:13:54;99090.08;;;21.96;44.02
56825;BME280;42705;50.326;18.772;2023-07-08T08:19:16;99089.25;;;22.06;42.66
56825;BME280;42705;50.326;18.772;2023-07-08T08:24:38;99089.94;;;22.17;41.52
56825;BME280;42705;50.326;18.772;2023-07-08T08:29:59;99088.80;;;22.27;41.08
56825;BME280;42705;50.326;18.772;2023-07-08T08:35:21;99086.77;;;22.40;40.84
56825;BME280;42705;50.326;18.772;2023-07-08T08:40:44;99081.23;;;22.47;40.28
56825;BME280;42705;50.326;18.772;2023-07-08T08:46:23;99080.06;;;22.55;40.28
56825;BME280;42705;50.326;18.772;2023-07-08T08:51:49;99073.90;;;22.63;39.79
56825;BME280;42705;50.326;18.772;2023-07-08T09:08:33;99070.49;;;22.86;38.87
56825;BME280;42705;50.326;18.772;2023-07-08T09:13:56;99067.13;;;22.96;38.28
56825;BME280;42705;50.326;18.772;2023-07-08T09:19:28;99066.71;;;23.05;37.59
56825;BME280;42705;50.326;18.772;2023-07-08T09:24:57;99061.73;;;23.10;37.06
56825;BME280;42705;50.326;18.772;2023-07-08T09:30:22;99059.71;;;23.19;36.88
56825;BME280;42705;50.326;18.772;2023-07-08T09:35:47;99060.92;;;23.27;36.75
56825;BME280;42705;50.326;18.772;2023-07-08T09:41:09;99064.20;;;23.36;36.66
56825;BME280;42705;50.326;18.772;2023-07-08T09:46:37;99055.87;;;23.44;36.35
56825;BME280;42705;50.326;18.772;2023-07-08T09:52:00;99055.15;;;23.51;36.44
56825;BME280;42705;50.326;18.772;2023-07-08T09:57:27;99047.02;;;23.60;36.23
56825;BME280;42705;50.326;18.772;2023-07-08T10:03:04;99037.25;;;23.66;36.14
56825;BME280;42705;50.326;18.772;2023-07-08T10:08:34;99041.02;;;23.73;36.05
56825;BME280;42705;50.326;18.772;2023-07-08T10:14:08;99038.21;;;23.84;35.64
56825;BME280;42705;50.326;18.772;2023-07-08T10:19:32;99035.45;;;23.94;35.08
56825;BME280;42705;50.326;18.772;2023-07-08T10:25:22;99030.61;;;24.01;34.72
56825;BME280;42705;50.326;18.772;2023-07-08T10:31:05;99025.98;;;24.09;34.67
56825;BME280;42705;50.326;18.772;2023-07-08T10:42:21;99018.73;;;24.29;34.80
56825;BME280;42705;50.326;18.772;2023-07-08T11:00:42;99015.34;;;24.59;33.14
56825;BME280;42705;50.326;18.772;2023-07-08T11:05:44;99011.09;;;24.69;33.56
56825;BME280;42705;50.326;18.772;2023-07-08T11:16:40;99000.62;;;24.93;33.17
56825;BME280;42705;50.326;18.772;2023-07-08T11:22:10;98995.61;;;25.07;33.11
56825;BME280;42705;50.326;18.772;2023-07-08T11:27:36;98995.10;;;25.20;32.18
56825;BME280;42705;50.326;18.772;2023-07-08T11:33:08;98986.51;;;25.33;31.38
56825;BME280;42705;50.326;18.772;2023-07-08T11:38:32;98984.04;;;25.49;31.68
56825;BME280;42705;50.326;18.772;2023-07-08T11:44:03;98987.55;;;25.66;30.92
56825;BME280;42705;50.326;18.772;2023-07-08T11:49:25;98984.98;;;25.82;30.56
56825;BME280;42705;50.326;18.772;2023-07-08T11:54:54;98981.30;;;25.99;30.54
56825;BME280;42705;50.326;18.772;2023-07-08T12:00:21;98973.33;;;26.16;30.62
56825;BME280;42705;50.326;18.772;2023-07-08T12:05:44;98970.98;;;26.34;30.07
56825;BME280;42705;50.326;18.772;2023-07-08T12:11:11;98963.92;;;26.51;30.48
56825;BME280;42705;50.326;18.772;2023-07-08T12:16:34;98959.29;;;26.71;30.25
56825;BME280;42705;50.326;18.772;2023-07-08T12:21:56;98951.95;;;26.90;30.00
56825;BME280;42705;50.326;18.772;2023-07-08T12:27:17;98950.28;;;27.06;29.72
56825;BME280;42705;50.326;18.772;2023-07-08T12:32:40;98947.55;;;27.25;30.11
56825;BME280;42705;50.326;18.772;2023-07-08T12:38:22;98938.66;;;27.45;29.99
56825;BME280;42705;50.326;18.772;2023-07-08T12:43:49;98939.63;;;27.67;29.72
56825;BME280;42705;50.326;18.772;2023-07-08T12:49:13;98937.48;;;27.83;29.34
56825;BME280;42705;50.326;18.772;2023-07-08T12:54:35;98932.96;;;28.04;29.11
56825;BME280;42705;50.326;18.772;2023-07-08T12:59:58;98928.40;;;28.23;28.44
56825;BME280;42705;50.326;18.772;2023-07-08T13:05:20;98921.11;;;28.40;28.20
56825;BME280;42705;50.326;18.772;2023-07-08T13:10:43;98915.14;;;28.59;28.63
56825;BME280;42705;50.326;18.772;2023-07-08T13:16:05;98911.44;;;28.87;28.83
56825;BME280;42705;50.326;18.772;2023-07-08T13:21:28;98908.34;;;29.24;28.23
56825;BME280;42705;50.326;18.772;2023-07-08T13:26:52;98908.33;;;29.72;28.09
56825;BME280;42705;50.326;18.772;2023-07-08T13:32:14;98908.04;;;30.51;28.14
56825;BME280;42705;50.326;18.772;2023-07-08T13:37:37;98903.96;;;32.39;26.27
56825;BME280;42705;50.326;18.772;2023-07-08T13:42:59;98899.54;;;34.22;24.06
56825;BME280;42705;50.326;18.772;2023-07-08T13:48:33;98893.34;;;36.42;23.68
56825;BME280;42705;50.326;18.772;2023-07-08T13:54:01;98888.95;;;39.05;21.79
56825;BME280;42705;50.326;18.772;2023-07-08T13:59:28;98884.98;;;41.46;20.04
56825;BME280;42705;50.326;18.772;2023-07-08T14:04:51;98880.08;;;43.67;18.13
56825;BME280;42705;50.326;18.772;2023-07-08T14:10:14;98881.42;;;45.52;16.78
56825;BME280;42705;50.326;18.772;2023-07-08T14:15:38;98877.09;;;46.94;15.18
56825;BME280;42705;50.326;18.772;2023-07-08T14:21:00;98873.09;;;48.03;14.24
56825;BME280;42705;50.326;18.772;2023-07-08T14:26:22;98870.89;;;48.24;12.96
56825;BME280;42705;50.326;18.772;2023-07-08T14:31:44;98867.48;;;48.85;12.27
56825;BME280;42705;50.326;18.772;2023-07-08T14:37:14;98860.58;;;49.20;11.79
56825;BME280;42705;50.326;18.772;2023-07-08T14:42:37;98852.54;;;49.91;12.00
56825;BME280;42705;50.326;18.772;2023-07-08T14:48:01;98845.06;;;50.16;11.26
56825;BME280;42705;50.326;18.772;2023-07-08T14:53:23;98841.41;;;49.84;10.92
56825;BME280;42705;50.326;18.772;2023-07-08T14:58:46;98842.59;;;49.80;10.75
56825;BME280;42705;50.326;18.772;2023-07-08T15:04:14;98839.71;;;49.65;10.48
56825;BME280;42705;50.326;18.772;2023-07-08T15:09:36;98834.95;;;49.68;10.56
56825;BME280;42705;50.326;18.772;2023-07-08T15:14:58;98831.39;;;50.06;10.51
56825;BME280;42705;50.326;18.772;2023-07-08T15:20:20;98828.20;;;50.13;10.41
56825;BME280;42705;50.326;18.772;2023-07-08T15:25:45;98822.15;;;50.28;10.41
56825;BME280;42705;50.326;18.772;2023-07-08T15:31:10;98821.98;;;50.22;10.41
56825;BME280;42705;50.326;18.772;2023-07-08T15:36:35;98822.17;;;50.02;10.06
56825;BME280;42705;50.326;18.772;2023-07-08T15:41:58;98820.95;;;49.66;10.00
56825;BME280;42705;50.326;18.772;2023-07-08T15:47:19;98818.30;;;49.48;10.15
56825;BME280;42705;50.326;18.772;2023-07-08T15:52:42;98815.22;;;49.54;10.47
56825;BME280;42705;50.326;18.772;2023-07-08T15:58:11;98811.73;;;49.22;10.32
56825;BME280;42705;50.326;18.772;2023-07-08T16:03:36;98809.86;;;48.88;10.51
56825;BME280;42705;50.326;18.772;2023-07-08T16:08:59;98806.69;;;48.45;10.48
56825;BME280;42705;50.326;18.772;2023-07-08T16:14:20;98807.77;;;47.61;10.78
56825;BME280;42705;50.326;18.772;2023-07-08T16:19:43;98805.84;;;47.19;10.82
56825;BME280;42705;50.326;18.772;2023-07-08T16:25:05;98808.17;;;46.84;11.13
56825;BME280;42705;50.326;18.772;2023-07-08T16:30:27;98808.25;;;46.33;11.32
56825;BME280;42705;50.326;18.772;2023-07-08T16:35:49;98807.86;;;45.89;11.40
56825;BME280;42705;50.326;18.772;2023-07-08T16:41:17;98805.25;;;45.43;11.68
56825;BME280;42705;50.326;18.772;2023-07-08T16:46:39;98801.25;;;44.47;11.83
56825;BME280;42705;50.326;18.772;2023-07-08T16:52:01;98799.90;;;43.22;12.36
56825;BME280;42705;50.326;18.772;2023-07-08T16:57:23;98801.36;;;41.87;13.15
56825;BME280;42705;50.326;18.772;2023-07-08T17:02:47;98801.56;;;40.72;13.63
56825;BME280;42705;50.326;18.772;2023-07-08T17:08:15;98797.99;;;39.78;14.25
56825;BME280;42705;50.326;18.772;2023-07-08T17:13:38;98796.34;;;39.19;14.76
56825;BME280;42705;50.326;18.772;2023-07-08T17:19:00;98793.11;;;38.43;15.23
56825;BME280;42705;50.326;18.772;2023-07-08T17:24:21;98791.95;;;37.32;15.98
56825;BME280;42705;50.326;18.772;2023-07-08T17:29:44;98790.05;;;36.26;17.14
56825;BME280;42705;50.326;18.772;2023-07-08T17:35:14;98794.38;;;35.61;18.39
56825;BME280;42705;50.326;18.772;2023-07-08T17:40:36;98792.84;;;35.00;19.09
56825;BME280;42705;50.326;18.772;2023-07-08T17:45:58;98791.44;;;34.26;19.58
56825;BME280;42705;50.326;18.772;2023-07-08T17:51:22;98794.73;;;33.51;20.30
56825;BME280;42705;50.326;18.772;2023-07-08T17:56:45;98799.19;;;32.87;21.12
56825;BME280;42705;50.326;18.772;2023-07-08T18:02:16;98796.67;;;32.33;22.02
56825;BME280;42705;50.326;18.772;2023-07-08T18:07:38;98796.64;;;31.76;22.73
56825;BME280;42705;50.326;18.772;2023-07-08T18:13:01;98795.45;;;31.22;23.13
56825;BME280;42705;50.326;18.772;2023-07-08T18:18:26;98797.28;;;30.77;23.63
56825;BME280;42705;50.326;18.772;2023-07-08T18:23:50;98798.09;;;30.37;24.26
56825;BME280;42705;50.326;18.772;2023-07-08T18:29:12;98797.66;;;30.07;24.60
56825;BME280;42705;50.326;18.772;2023-07-08T18:34:34;98797.15;;;29.76;25.31
56825;BME280;42705;50.326;18.772;2023-07-08T18:39:56;98799.98;;;29.40;25.79
56825;BME280;42705;50.326;18.772;2023-07-08T18:45:19;98806.34;;;29.05;25.91
56825;BME280;42705;50.326;18.772;2023-07-08T18:50:42;98808.52;;;28.72;27.02
56825;BME280;42705;50.326;18.772;2023-07-08T18:56:12;98810.16;;;28.39;27.63
56825;BME280;42705;50.326;18.772;2023-07-08T19:01:42;98812.16;;;28.02;28.65
56825;BME280;42705;50.326;18.772;2023-07-08T19:07:04;98820.48;;;27.66;29.59
56825;BME280;42705;50.326;18.772;2023-07-08T19:12:27;98824.29;;;27.30;30.56
56825;BME280;42705;50.326;18.772;2023-07-08T19:17:51;98825.02;;;26.98;31.21
56825;BME280;42705;50.326;18.772;2023-07-08T19:23:20;98825.38;;;26.68;31.78
56825;BME280;42705;50.326;18.772;2023-07-08T19:28:43;98827.21;;;26.41;32.47
56825;BME280;42705;50.326;18.772;2023-07-08T19:34:11;98825.42;;;26.16;32.78
56825;BME280;42705;50.326;18.772;2023-07-08T19:39:34;98827.25;;;25.94;33.21
56825;BME280;42705;50.326;18.772;2023-07-08T19:44:55;98832.39;;;25.71;33.72
56825;BME280;42705;50.326;18.772;2023-07-08T19:50:19;98829.58;;;25.49;34.51
56825;BME280;42705;50.326;18.772;2023-07-08T19:55:41;98831.84;;;25.28;35.02
56825;BME280;42705;50.326;18.772;2023-07-08T20:01:03;98831.56;;;25.07;35.79
56825;BME280;42705;50.326;18.772;2023-07-08T20:06:26;98834.40;;;24.85;36.60
56825;BME280;42705;50.326;18.772;2023-07-08T20:11:48;98834.27;;;24.67;37.28
56825;BME280;42705;50.326;18.772;2023-07-08T20:17:13;98837.20;;;24.52;38.06
56825;BME280;42705;50.326;18.772;2023-07-08T20:22:35;98847.14;;;24.33;38.17
56825;BME280;42705;50.326;18.772;2023-07-08T20:27:57;98841.08;;;24.16;38.34
56825;BME280;42705;50.326;18.772;2023-07-08T20:33:19;98847.88;;;23.98;38.97
56825;BME280;42705;50.326;18.772;2023-07-08T20:38:41;98853.80;;;23.79;39.40
56825;BME280;42705;50.326;18.772;2023-07-08T20:44:05;98854.17;;;23.61;39.68
56825;BME280;42705;50.326;18.772;2023-07-08T20:49:28;98858.40;;;23.44;40.38
56825;BME280;42705;50.326;18.772;2023-07-08T20:54:50;98859.20;;;23.27;40.89
56825;BME280;42705;50.326;18.772;2023-07-08T21:00:26;98865.23;;;23.12;41.40
56825;BME280;42705;50.326;18.772;2023-07-08T21:05:51;98862.98;;;22.97;41.85
56825;BME280;42705;50.326;18.772;2023-07-08T21:11:13;98863.79;;;22.87;41.26
56825;BME280;42705;50.326;18.772;2023-07-08T21:16:35;98864.09;;;22.82;41.45
56825;BME280;42705;50.326;18.772;2023-07-08T21:21:58;98868.17;;;22.78;41.23
56825;BME280;42705;50.326;18.772;2023-07-08T21:27:21;98872.61;;;22.74;39.22
56825;BME280;42705;50.326;18.772;2023-07-08T21:32:45;98875.70;;;22.73;39.18
56825;BME280;42705;50.326;18.772;2023-07-08T21:38:09;98877.17;;;22.70;38.62
56825;BME280;42705;50.326;18.772;2023-07-08T21:43:33;98872.88;;;22.64;38.79
56825;BME280;42705;50.326;18.772;2023-07-08T21:48:55;98873.27;;;22.62;38.76
56825;BME280;42705;50.326;18.772;2023-07-08T21:54:18;98873.80;;;22.59;38.44
56825;BME280;42705;50.326;18.772;2023-07-08T21:59:40;98871.88;;;22.56;40.16
56825;BME280;42705;50.326;18.772;2023-07-08T22:05:02;98874.02;;;22.47;41.81
56825;BME280;42705;50.326;18.772;2023-07-08T22:10:24;98873.36;;;22.33;43.09
56825;BME280;42705;50.326;18.772;2023-07-08T22:15:46;98873.90;;;22.19;44.00
56825;BME280;42705;50.326;18.772;2023-07-08T22:21:11;98871.88;;;22.05;44.80
56825;BME280;42705;50.326;18.772;2023-07-08T22:26:40;98875.68;;;21.91;45.25
56825;BME280;42705;50.326;18.772;2023-07-08T22:32:05;98876.70;;;21.80;44.96
56825;BME280;42705;50.326;18.772;2023-07-08T22:37:26;98873.29;;;21.72;44.94
56825;BME280;42705;50.326;18.772;2023-07-08T22:42:48;98869.89;;;21.63;45.20
56825;BME280;42705;50.326;18.772;2023-07-08T22:48:11;98868.57;;;21.54;45.35
56825;BME280;42705;50.326;18.772;2023-07-08T22:53:33;98870.70;;;21.46;45.48
56825;BME280;42705;50.326;18.772;2023-07-08T22:58:55;98871.86;;;21.38;45.60
56825;BME280;42705;50.326;18.772;2023-07-08T23:04:17;98873.95;;;21.30;45.97
56825;BME280;42705;50.326;18.772;2023-07-08T23:09:39;98872.46;;;21.22;46.10
56825;BME280;42705;50.326;18.772;2023-07-08T23:15:01;98875.05;;;21.16;44.20
56825;BME280;42705;50.326;18.772;2023-07-08T23:20:23;98881.27;;;21.11;43.24
56825;BME280;42705;50.326;18.772;2023-07-08T23:25:45;98875.40;;;21.10;43.66
56825;BME280;42705;50.326;18.772;2023-07-08T23:31:09;98883.35;;;21.08;43.74
56825;BME280;42705;50.326;18.772;2023-07-08T23:36:40;98880.70;;;21.04;44.84
56825;BME280;42705;50.326;18.772;2023-07-08T23:42:02;98880.45;;;20.93;46.08
56825;BME280;42705;50.326;18.772;2023-07-08T23:47:25;98883.14;;;20.80;46.74
56825;BME280;42705;50.326;18.772;2023-07-08T23:52:48;98885.46;;;20.66;46.49
56825;BME280;42705;50.326;18.772;2023-07-08T23:58:11;98886.52;;;20.54;47.23
